sensor_id;sensor_type;location;lat;lon;timestamp;pressure;altitude;pressure_sealevel;temperature;humidity
69351;BME280;57106;51.446;-2.606;2023-06-22T00:01:02;101784.90;;;19.83;68.69
69351;BME280;57106;51.446;-2.606;2023-06-22T00:03:28;101782.52;;;19.73;69.29
69351;BME280;57106;51.446;-2.606;2023-06-22T00:05:53;101786.10;;;19.63;69.84
69351;BME280;57106;51.446;-2.606;2023-06-22T00:08:19;101778.24;;;19.75;69.43
69351;BME280;57106;51.446;-2.606;2023-06-22T00:10:44;101779.48;;;19.73;69.55
69351;BME280;57106;51.446;-2.606;2023-06-22T00:13:09;101776.61;;;19.65;69.95
69351;BME280;57106;51.446;-2.606;2023-06-22T00:15:35;101779.52;;;19.77;69.50
69351;BME280;57106;51.446;-2.606;2023-06-22T00:18:00;101782.54;;;19.68;69.74
69351;BME280;57106;51.446;-2.606;2023-06-22T00:20:25;101784.24;;;19.45;70.54
69351;BME280;57106;51.446;-2.606;2023-06-22T00:22:55;101787.50;;;19.55;70.44
69351;BME280;57106;51.446;-2.606;2023-06-22T00:27:47;101784.14;;;19.73;70.13
69351;BME280;57106;51.446;-2.606;2023-06-22T00:39:49;101782.58;;;19.74;69.76
69351;BME280;57106;51.446;-2.606;2023-06-22T00:42:14;101783.17;;;19.70;70.02
69351;BME280;57106;51.446;-2.606;2023-06-22T00:44:39;101784.74;;;19.65;70.14
69351;BME280;57106;51.446;-2.606;2023-06-22T00:47:05;101781.61;;;19.48;70.84
69351;BME280;57106;51.446;-2.606;2023-06-22T00:49:30;101781.75;;;19.32;71.32
69351;BME280;57106;51.446;-2.606;2023-06-22T00:51:57;101776.25;;;19.40;71.33
69351;BME280;57106;51.446;-2.606;2023-06-22T00:54:21;101776.95;;;19.26;71.36
69351;BME280;57106;51.446;-2.606;2023-06-22T00:56:47;101778.05;;;19.13;71.72
69351;BME280;57106;51.446;-2.606;2023-06-22T00:59:12;101776.01;;;18.99;72.42
69351;BME280;57106;51.446;-2.606;2023-06-22T01:01:37;101775.35;;;19.08;72.38
69351;BME280;57106;51.446;-2.606;2023-06-22T01:04:03;101776.13;;;18.95;72.82
69351;BME280;57106;51.446;-2.606;2023-06-22T01:06:33;101777.36;;;19.11;72.40
69351;BME280;57106;51.446;-2.606;2023-06-22T01:09:01;101774.95;;;18.87;73.39
69351;BME280;57106;51.446;-2.606;2023-06-22T01:11:24;101778.21;;;18.90;73.39
69351;BME280;57106;51.446;-2.606;2023-06-22T01:13:50;101780.84;;;18.77;73.71
69351;BME280;57106;51.446;-2.606;2023-06-22T01:16:17;101783.92;;;18.76;74.15
69351;BME280;57106;51.446;-2.606;2023-06-22T01:18:41;101785.69;;;18.95;73.27
69351;BME280;57106;51.446;-2.606;2023-06-22T01:21:02;101784.30;;;19.02;73.04
69351;BME280;57106;51.446;-2.606;2023-06-22T01:23:35;101786.64;;;18.86;73.86
69351;BME280;57106;51.446;-2.606;2023-06-22T01:25:59;101790.74;;;18.88;73.96
69351;BME280;57106;51.446;-2.606;2023-06-22T01:30:46;101800.17;;;18.83;73.90
69351;BME280;57106;51.446;-2.606;2023-06-22T01:33:10;101799.65;;;18.83;74.18
69351;BME280;57106;51.446;-2.606;2023-06-22T01:35:35;101799.79;;;18.89;73.96
69351;BME280;57106;51.446;-2.606;2023-06-22T02:31:20;101814.73;;;19.18;73.65
69351;BME280;57106;51.446;-2.606;2023-06-22T02:38:37;101818.67;;;19.32;73.23
69351;BME280;57106;51.446;-2.606;2023-06-22T02:41:02;101818.55;;;19.42;72.95
69351;BME280;57106;51.446;-2.606;2023-06-22T02:43:27;101818.30;;;19.29;73.27
69351;BME280;57106;51.446;-2.606;2023-06-22T02:45:53;101821.30;;;19.36;72.97
69351;BME280;57106;51.446;-2.606;2023-06-22T02:48:18;101820.50;;;19.38;72.58
69351;BME280;57106;51.446;-2.606;2023-06-22T02:50:44;101818.25;;;19.27;73.06
69351;BME280;57106;51.446;-2.606;2023-06-22T02:53:09;101813.54;;;19.09;73.47
69351;BME280;57106;51.446;-2.606;2023-06-22T02:55:34;101814.52;;;18.93;74.47
69351;BME280;57106;51.446;-2.606;2023-06-22T02:58:00;101818.17;;;18.94;74.40
69351;BME280;57106;51.446;-2.606;2023-06-22T03:00:25;101819.59;;;18.91;74.69
69351;BME280;57106;51.446;-2.606;2023-06-22T03:02:51;101819.65;;;18.96;74.41
69351;BME280;57106;51.446;-2.606;2023-06-22T03:05:16;101818.98;;;18.85;74.94
69351;BME280;57106;51.446;-2.606;2023-06-22T03:07:42;101823.25;;;18.97;74.59
69351;BME280;57106;51.446;-2.606;2023-06-22T03:10:08;101823.08;;;18.99;74.59
69351;BME280;57106;51.446;-2.606;2023-06-22T03:12:32;101822.96;;;18.83;75.22
69351;BME280;57106;51.446;-2.606;2023-06-22T03:14:58;101824.14;;;18.96;74.82
69351;BME280;57106;51.446;-2.606;2023-06-22T03:17:23;101827.02;;;19.00;74.47
69351;BME280;57106;51.446;-2.606;2023-06-22T03:19:50;101825.21;;;18.96;74.59
69351;BME280;57106;51.446;-2.606;2023-06-22T03:22:15;101826.50;;;18.88;75.18
69351;BME280;57106;51.446;-2.606;2023-06-22T03:24:40;101823.13;;;19.04;74.47
69351;BME280;57106;51.446;-2.606;2023-06-22T03:27:05;101822.79;;;19.02;74.88
69351;BME280;57106;51.446;-2.606;2023-06-22T03:29:30;101817.88;;;18.94;74.84
69351;BME280;57106;51.446;-2.606;2023-06-22T03:31:56;101817.39;;;18.90;74.52
69351;BME280;57106;51.446;-2.606;2023-06-22T03:34:21;101814.72;;;18.95;74.34
69351;BME280;57106;51.446;-2.606;2023-06-22T03:36:47;101814.24;;;18.86;74.69
69351;BME280;57106;51.446;-2.606;2023-06-22T03:39:13;101817.65;;;18.89;74.43
69351;BME280;57106;51.446;-2.606;2023-06-22T03:41:38;101821.01;;;18.97;74.57
69351;BME280;57106;51.446;-2.606;2023-06-22T03:44:04;101820.53;;;18.89;74.44
69351;BME280;57106;51.446;-2.606;2023-06-22T03:46:29;101816.29;;;18.90;74.69
69351;BME280;57106;51.446;-2.606;2023-06-22T03:48:55;101814.68;;;18.87;74.50
69351;BME280;57106;51.446;-2.606;2023-06-22T03:51:20;101812.66;;;18.78;74.51
69351;BME280;57106;51.446;-2.606;2023-06-22T03:53:45;101813.06;;;18.79;74.84
69351;BME280;57106;51.446;-2.606;2023-06-22T03:56:11;101816.08;;;18.84;74.77
69351;BME280;57106;51.446;-2.606;2023-06-22T03:58:36;101816.87;;;18.78;74.69
69351;BME280;57106;51.446;-2.606;2023-06-22T04:01:02;101816.78;;;18.74;75.01
69351;BME280;57106;51.446;-2.606;2023-06-22T04:03:27;101816.64;;;18.65;75.40
69351;BME280;57106;51.446;-2.606;2023-06-22T04:05:53;101817.11;;;18.60;75.67
69351;BME280;57106;51.446;-2.606;2023-06-22T04:08:18;101818.15;;;18.60;75.49
69351;BME280;57106;51.446;-2.606;2023-06-22T04:10:44;101816.96;;;18.71;75.14
69351;BME280;57106;51.446;-2.606;2023-06-22T04:13:08;101815.69;;;18.66;75.37
69351;BME280;57106;51.446;-2.606;2023-06-22T04:15:34;101816.60;;;18.57;75.11
69351;BME280;57106;51.446;-2.606;2023-06-22T04:18:00;101818.97;;;18.55;75.44
69351;BME280;57106;51.446;-2.606;2023-06-22T04:20:25;101820.25;;;18.59;75.27
69351;BME280;57106;51.446;-2.606;2023-06-22T04:22:52;101818.11;;;18.50;75.75
69351;BME280;57106;51.446;-2.606;2023-06-22T04:25:17;101815.93;;;18.48;76.09
69351;BME280;57106;51.446;-2.606;2023-06-22T04:27:42;101812.87;;;18.53;75.68
69351;BME280;57106;51.446;-2.606;2023-06-22T04:30:08;101813.66;;;18.61;75.45
69351;BME280;57106;51.446;-2.606;2023-06-22T04:32:33;101815.18;;;18.75;74.58
69351;BME280;57106;51.446;-2.606;2023-06-22T04:34:59;101815.34;;;18.60;74.92
69351;BME280;57106;51.446;-2.606;2023-06-22T04:37:24;101816.59;;;18.56;75.31
69351;BME280;57106;51.446;-2.606;2023-06-22T04:39:50;101818.57;;;18.67;74.95
69351;BME280;57106;51.446;-2.606;2023-06-22T04:42:14;101814.89;;;18.68;74.48
69351;BME280;57106;51.446;-2.606;2023-06-22T04:44:40;101813.98;;;18.70;74.72
69351;BME280;57106;51.446;-2.606;2023-06-22T04:47:05;101816.94;;;18.68;74.86
69351;BME280;57106;51.446;-2.606;2023-06-22T04:49:31;101821.90;;;18.75;74.62
69351;BME280;57106;51.446;-2.606;2023-06-22T04:51:57;101826.54;;;18.68;74.64
69351;BME280;57106;51.446;-2.606;2023-06-22T04:54:22;101829.13;;;18.70;74.59
69351;BME280;57106;51.446;-2.606;2023-06-22T04:56:48;101832.16;;;18.92;73.98
69351;BME280;57106;51.446;-2.606;2023-06-22T04:59:13;101836.77;;;19.09;72.99
69351;BME280;57106;51.446;-2.606;2023-06-22T05:01:40;101836.47;;;19.17;72.91
69351;BME280;57106;51.446;-2.606;2023-06-22T05:04:04;101838.85;;;19.31;72.40
69351;BME280;57106;51.446;-2.606;2023-06-22T05:06:29;101840.44;;;19.59;71.66
69351;BME280;57106;51.446;-2.606;2023-06-22T05:08:56;101839.34;;;19.85;70.67
69351;BME280;57106;51.446;-2.606;2023-06-22T05:11:20;101839.73;;;20.48;68.32
69351;BME280;57106;51.446;-2.606;2023-06-22T05:13:46;101839.98;;;20.83;67.22
69351;BME280;57106;51.446;-2.606;2023-06-22T05:16:11;101838.99;;;20.97;66.51
69351;BME280;57106;51.446;-2.606;2023-06-22T05:18:36;101834.41;;;21.18;65.37
69351;BME280;57106;51.446;-2.606;2023-06-22T05:21:02;101829.93;;;21.34;64.85
69351;BME280;57106;51.446;-2.606;2023-06-22T05:23:27;101830.02;;;21.47;64.78
69351;BME280;57106;51.446;-2.606;2023-06-22T05:25:53;101831.67;;;21.42;64.82
69351;BME280;57106;51.446;-2.606;2023-06-22T05:28:19;101833.84;;;21.72;63.94
69351;BME280;57106;51.446;-2.606;2023-06-22T05:30:43;101834.84;;;21.76;63.56
69351;BME280;57106;51.446;-2.606;2023-06-22T05:33:09;101835.60;;;21.73;63.52
69351;BME280;57106;51.446;-2.606;2023-06-22T05:35:35;101838.68;;;21.90;63.32
69351;BME280;57106;51.446;-2.606;2023-06-22T05:38:00;101845.91;;;22.29;61.96
69351;BME280;57106;51.446;-2.606;2023-06-22T05:40:25;101847.43;;;22.23;61.79
69351;BME280;57106;51.446;-2.606;2023-06-22T05:42:51;101845.38;;;22.63;60.47
69351;BME280;57106;51.446;-2.606;2023-06-22T05:45:16;101846.09;;;22.31;62.05
69351;BME280;57106;51.446;-2.606;2023-06-22T05:47:41;101842.87;;;22.39;61.06
69351;BME280;57106;51.446;-2.606;2023-06-22T05:50:08;101844.26;;;22.61;61.07
69351;BME280;57106;51.446;-2.606;2023-06-22T05:52:32;101847.95;;;22.77;60.58
69351;BME280;57106;51.446;-2.606;2023-06-22T05:54:59;101847.23;;;22.89;60.03
69351;BME280;57106;51.446;-2.606;2023-06-22T05:57:23;101849.39;;;22.95;59.98
69351;BME280;57106;51.446;-2.606;2023-06-22T05:59:48;101852.88;;;22.96;59.78
69351;BME280;57106;51.446;-2.606;2023-06-22T06:02:14;101860.63;;;23.04;59.66
69351;BME280;57106;51.446;-2.606;2023-06-22T06:04:39;101857.79;;;23.27;59.28
69351;BME280;57106;51.446;-2.606;2023-06-22T06:07:09;101856.14;;;23.35;58.46
69351;BME280;57106;51.446;-2.606;2023-06-22T06:21:42;101853.40;;;23.18;58.86
69351;BME280;57106;51.446;-2.606;2023-06-22T06:24:02;101852.57;;;23.45;57.91
69351;BME280;57106;51.446;-2.606;2023-06-22T06:26:29;101852.89;;;23.29;58.18
69351;BME280;57106;51.446;-2.606;2023-06-22T06:31:17;101853.58;;;23.61;57.49
69351;BME280;57106;51.446;-2.606;2023-06-22T06:33:49;101851.56;;;23.51;57.09
69351;BME280;57106;51.446;-2.606;2023-06-22T06:36:09;101851.83;;;23.28;56.40
69351;BME280;57106;51.446;-2.606;2023-06-22T06:38:34;101854.81;;;22.97;57.03
69351;BME280;57106;51.446;-2.606;2023-06-22T06:40:59;101854.97;;;22.81;56.23
69351;BME280;57106;51.446;-2.606;2023-06-22T06:43:24;101859.07;;;22.81;56.65
69351;BME280;57106;51.446;-2.606;2023-06-22T06:45:50;101862.02;;;22.67;56.13
69351;BME280;57106;51.446;-2.606;2023-06-22T06:48:15;101866.88;;;22.38;56.74
69351;BME280;57106;51.446;-2.606;2023-06-22T06:50:41;101869.22;;;22.62;57.10
69351;BME280;57106;51.446;-2.606;2023-06-22T06:53:10;101877.28;;;22.36;57.47
69351;BME280;57106;51.446;-2.606;2023-06-22T07:10:05;101880.64;;;23.05;56.52
69351;BME280;57106;51.446;-2.606;2023-06-22T07:12:28;101877.11;;;22.81;57.03
69351;BME280;57106;51.446;-2.606;2023-06-22T07:14:53;101876.43;;;22.33;58.74
69351;BME280;57106;51.446;-2.606;2023-06-22T07:17:18;101875.39;;;22.46;58.28
69351;BME280;57106;51.446;-2.606;2023-06-22T07:19:44;101876.77;;;22.37;58.33
69351;BME280;57106;51.446;-2.606;2023-06-22T07:22:10;101876.26;;;22.33;58.01
69351;BME280;57106;51.446;-2.606;2023-06-22T07:24:34;101873.19;;;22.71;57.75
69351;BME280;57106;51.446;-2.606;2023-06-22T07:27:00;101874.26;;;22.85;57.25
69351;BME280;57106;51.446;-2.606;2023-06-22T07:29:25;101872.86;;;23.00;56.58
69351;BME280;57106;51.446;-2.606;2023-06-22T07:31:50;101868.84;;;22.65;57.20
69351;BME280;57106;51.446;-2.606;2023-06-22T07:34:16;101866.22;;;22.84;56.34
69351;BME280;57106;51.446;-2.606;2023-06-22T07:36:41;101865.36;;;22.77;56.90
69351;BME280;57106;51.446;-2.606;2023-06-22T07:39:07;101865.31;;;22.76;56.83
69351;BME280;57106;51.446;-2.606;2023-06-22T07:41:32;101871.15;;;23.17;56.00
69351;BME280;57106;51.446;-2.606;2023-06-22T07:43:57;101861.95;;;22.41;55.98
69351;BME280;57106;51.446;-2.606;2023-06-22T07:46:22;101856.19;;;22.48;56.35
69351;BME280;57106;51.446;-2.606;2023-06-22T07:48:47;101857.21;;;22.94;55.25
69351;BME280;57106;51.446;-2.606;2023-06-22T07:51:13;101854.60;;;23.31;55.07
69351;BME280;57106;51.446;-2.606;2023-06-22T07:53:40;101859.31;;;23.06;55.36
69351;BME280;57106;51.446;-2.606;2023-06-22T07:56:04;101857.44;;;22.54;55.80
69351;BME280;57106;51.446;-2.606;2023-06-22T07:58:29;101861.05;;;22.55;55.79
69351;BME280;57106;51.446;-2.606;2023-06-22T08:00:54;101862.07;;;22.53;56.44
69351;BME280;57106;51.446;-2.606;2023-06-22T08:03:19;101863.01;;;22.88;55.06
69351;BME280;57106;51.446;-2.606;2023-06-22T08:05:45;101859.30;;;22.78;54.88
69351;BME280;57106;51.446;-2.606;2023-06-22T08:10:35;101862.61;;;22.42;55.64
69351;BME280;57106;51.446;-2.606;2023-06-22T08:13:01;101860.52;;;22.35;55.35
69351;BME280;57106;51.446;-2.606;2023-06-22T08:15:26;101852.70;;;22.50;55.60
69351;BME280;57106;51.446;-2.606;2023-06-22T08:17:52;101852.27;;;22.47;55.90
69351;BME280;57106;51.446;-2.606;2023-06-22T08:20:23;101858.77;;;22.23;56.27
69351;BME280;57106;51.446;-2.606;2023-06-22T08:22:43;101857.88;;;21.95;57.63
69351;BME280;57106;51.446;-2.606;2023-06-22T08:25:09;101854.03;;;22.52;56.58
69351;BME280;57106;51.446;-2.606;2023-06-22T08:27:35;101851.79;;;22.61;55.79
69351;BME280;57106;51.446;-2.606;2023-06-22T08:29:58;101857.31;;;22.19;56.64
69351;BME280;57106;51.446;-2.606;2023-06-22T08:32:24;101855.68;;;22.08;57.29
69351;BME280;57106;51.446;-2.606;2023-06-22T08:34:49;101855.04;;;22.44;56.89
69351;BME280;57106;51.446;-2.606;2023-06-22T08:37:15;101857.74;;;22.33;55.95
69351;BME280;57106;51.446;-2.606;2023-06-22T08:39:45;101855.65;;;22.05;56.98
69351;BME280;57106;51.446;-2.606;2023-06-22T08:42:06;101853.85;;;22.18;58.03
69351;BME280;57106;51.446;-2.606;2023-06-22T08:44:30;101851.95;;;22.77;56.79
69351;BME280;57106;51.446;-2.606;2023-06-22T08:46:56;101857.04;;;22.79;56.61
69351;BME280;57106;51.446;-2.606;2023-06-22T08:56:38;101869.96;;;23.58;54.83
69351;BME280;57106;51.446;-2.606;2023-06-22T08:59:03;101869.19;;;23.85;53.41
69351;BME280;57106;51.446;-2.606;2023-06-22T09:01:28;101871.71;;;23.85;53.24
69351;BME280;57106;51.446;-2.606;2023-06-22T09:03:53;101873.24;;;23.40;54.33
69351;BME280;57106;51.446;-2.606;2023-06-22T09:06:18;101869.77;;;23.53;54.82
69351;BME280;57106;51.446;-2.606;2023-06-22T09:08:43;101869.15;;;23.75;53.87
69351;BME280;57106;51.446;-2.606;2023-06-22T09:11:09;101871.78;;;23.74;53.85
69351;BME280;57106;51.446;-2.606;2023-06-22T09:13:34;101872.42;;;23.75;53.84
69351;BME280;57106;51.446;-2.606;2023-06-22T09:16:00;101876.28;;;23.83;54.06
69351;BME280;57106;51.446;-2.606;2023-06-22T09:18:25;101879.18;;;23.77;53.95
69351;BME280;57106;51.446;-2.606;2023-06-22T09:20:51;101880.60;;;23.66;53.73
69351;BME280;57106;51.446;-2.606;2023-06-22T09:25:41;101881.83;;;23.95;53.88
69351;BME280;57106;51.446;-2.606;2023-06-22T09:28:06;101882.84;;;23.82;53.33
69351;BME280;57106;51.446;-2.606;2023-06-22T09:30:31;101884.32;;;23.67;53.83
69351;BME280;57106;51.446;-2.606;2023-06-22T09:32:56;101880.01;;;23.75;53.61
69351;BME280;57106;51.446;-2.606;2023-06-22T09:35:22;101879.27;;;23.52;54.51
69351;BME280;57106;51.446;-2.606;2023-06-22T09:37:47;101879.51;;;23.79;53.97
69351;BME280;57106;51.446;-2.606;2023-06-22T09:40:12;101882.55;;;23.94;53.06
69351;BME280;57106;51.446;-2.606;2023-06-22T09:42:38;101882.08;;;23.91;53.18
69351;BME280;57106;51.446;-2.606;2023-06-22T09:45:04;101882.21;;;24.33;51.35
69351;BME280;57106;51.446;-2.606;2023-06-22T09:47:38;101881.84;;;24.13;52.13
69351;BME280;57106;51.446;-2.606;2023-06-22T09:49:53;101888.70;;;24.27;51.34
69351;BME280;57106;51.446;-2.606;2023-06-22T09:52:19;101889.69;;;24.23;51.61
69351;BME280;57106;51.446;-2.606;2023-06-22T09:54:44;101887.38;;;24.21;51.33
69351;BME280;57106;51.446;-2.606;2023-06-22T09:57:10;101886.04;;;24.28;51.19
69351;BME280;57106;51.446;-2.606;2023-06-22T09:59:34;101884.40;;;23.85;51.57
69351;BME280;57106;51.446;-2.606;2023-06-22T10:02:00;101883.35;;;23.81;52.10
69351;BME280;57106;51.446;-2.606;2023-06-22T10:04:25;101887.67;;;23.90;52.12
69351;BME280;57106;51.446;-2.606;2023-06-22T10:06:50;101884.46;;;24.06;51.77
69351;BME280;57106;51.446;-2.606;2023-06-22T10:09:16;101879.19;;;23.62;52.36
69351;BME280;57106;51.446;-2.606;2023-06-22T10:11:41;101888.12;;;23.40;53.43
69351;BME280;57106;51.446;-2.606;2023-06-22T10:14:06;101885.03;;;23.99;52.40
69351;BME280;57106;51.446;-2.606;2023-06-22T10:16:32;101888.24;;;24.23;50.83
69351;BME280;57106;51.446;-2.606;2023-06-22T10:18:57;101889.92;;;24.40;50.89
69351;BME280;57106;51.446;-2.606;2023-06-22T10:21:22;101889.18;;;23.89;52.49
69351;BME280;57106;51.446;-2.606;2023-06-22T10:23:47;101893.22;;;24.13;51.65
69351;BME280;57106;51.446;-2.606;2023-06-22T10:26:13;101898.78;;;24.16;51.22
69351;BME280;57106;51.446;-2.606;2023-06-22T10:28:38;101897.84;;;24.50;50.78
69351;BME280;57106;51.446;-2.606;2023-06-22T10:31:03;101899.14;;;24.68;50.18
69351;BME280;57106;51.446;-2.606;2023-06-22T10:33:28;101893.53;;;24.95;48.62
69351;BME280;57106;51.446;-2.606;2023-06-22T10:35:54;101901.67;;;24.49;48.89
69351;BME280;57106;51.446;-2.606;2023-06-22T10:38:20;101903.50;;;24.38;48.80
69351;BME280;57106;51.446;-2.606;2023-06-22T10:40:44;101904.56;;;24.70;48.61
69351;BME280;57106;51.446;-2.606;2023-06-22T10:43:11;101898.12;;;25.07;48.24
69351;BME280;57106;51.446;-2.606;2023-06-22T10:45:35;101900.56;;;25.27;47.86
69351;BME280;57106;51.446;-2.606;2023-06-22T10:48:00;101898.54;;;25.06;48.33
69351;BME280;57106;51.446;-2.606;2023-06-22T10:50:25;101899.25;;;24.95;48.64
69351;BME280;57106;51.446;-2.606;2023-06-22T10:52:51;101899.06;;;24.76;48.41
69351;BME280;57106;51.446;-2.606;2023-06-22T10:55:18;101895.74;;;24.61;49.90
69351;BME280;57106;51.446;-2.606;2023-06-22T10:57:41;101899.09;;;24.90;49.04
69351;BME280;57106;51.446;-2.606;2023-06-22T11:00:07;101902.58;;;24.94;48.19
69351;BME280;57106;51.446;-2.606;2023-06-22T11:02:32;101896.98;;;24.66;48.44
69351;BME280;57106;51.446;-2.606;2023-06-22T11:04:57;101903.39;;;24.82;48.26
69351;BME280;57106;51.446;-2.606;2023-06-22T11:07:22;101898.89;;;24.87;48.41
69351;BME280;57106;51.446;-2.606;2023-06-22T11:09:47;101897.28;;;24.46;48.88
69351;BME280;57106;51.446;-2.606;2023-06-22T11:12:13;101896.99;;;24.36;49.05
69351;BME280;57106;51.446;-2.606;2023-06-22T11:14:39;101896.19;;;24.40;49.10
69351;BME280;57106;51.446;-2.606;2023-06-22T11:17:03;101892.81;;;24.58;48.71
69351;BME280;57106;51.446;-2.606;2023-06-22T11:19:28;101889.48;;;24.70;48.44
69351;BME280;57106;51.446;-2.606;2023-06-22T11:21:54;101888.00;;;24.94;48.27
69351;BME280;57106;51.446;-2.606;2023-06-22T11:24:19;101887.70;;;25.36;47.54
69351;BME280;57106;51.446;-2.606;2023-06-22T11:26:45;101890.00;;;25.84;45.72
69351;BME280;57106;51.446;-2.606;2023-06-22T11:29:09;101893.37;;;25.66;44.59
69351;BME280;57106;51.446;-2.606;2023-06-22T11:31:35;101887.66;;;25.79;45.09
69351;BME280;57106;51.446;-2.606;2023-06-22T11:34:00;101888.03;;;26.19;45.19
69351;BME280;57106;51.446;-2.606;2023-06-22T11:36:26;101888.39;;;25.90;44.76
69351;BME280;57106;51.446;-2.606;2023-06-22T11:38:51;101885.19;;;25.97;44.95
69351;BME280;57106;51.446;-2.606;2023-06-22T11:41:16;101885.56;;;25.73;45.06
69351;BME280;57106;51.446;-2.606;2023-06-22T11:43:41;101881.30;;;25.79;44.96
69351;BME280;57106;51.446;-2.606;2023-06-22T11:46:06;101877.89;;;25.85;46.17
69351;BME280;57106;51.446;-2.606;2023-06-22T11:48:32;101874.94;;;25.88;45.66
69351;BME280;57106;51.446;-2.606;2023-06-22T11:50:57;101875.60;;;24.96;46.03
69351;BME280;57106;51.446;-2.606;2023-06-22T11:53:24;101875.79;;;25.43;45.29
69351;BME280;57106;51.446;-2.606;2023-06-22T11:55:47;101877.18;;;25.87;43.82
69351;BME280;57106;51.446;-2.606;2023-06-22T11:58:12;101875.85;;;25.71;43.90
69351;BME280;57106;51.446;-2.606;2023-06-22T12:00:38;101877.47;;;25.84;43.82
69351;BME280;57106;51.446;-2.606;2023-06-22T12:03:03;101873.71;;;25.94;42.52
69351;BME280;57106;51.446;-2.606;2023-06-22T12:05:30;101872.07;;;26.11;44.59
69351;BME280;57106;51.446;-2.606;2023-06-22T12:07:54;101869.23;;;25.88;45.35
69351;BME280;57106;51.446;-2.606;2023-06-22T12:10:20;101868.13;;;25.93;44.01
69351;BME280;57106;51.446;-2.606;2023-06-22T12:12:44;101867.27;;;26.12;43.03
69351;BME280;57106;51.446;-2.606;2023-06-22T12:15:10;101863.28;;;25.68;44.78
69351;BME280;57106;51.446;-2.606;2023-06-22T12:17:34;101867.64;;;25.81;45.99
69351;BME280;57106;51.446;-2.606;2023-06-22T12:20:00;101865.15;;;25.20;47.21
69351;BME280;57106;51.446;-2.606;2023-06-22T12:22:25;101859.37;;;25.23;47.29
69351;BME280;57106;51.446;-2.606;2023-06-22T12:24:50;101858.57;;;25.38;47.05
69351;BME280;57106;51.446;-2.606;2023-06-22T12:27:18;101864.97;;;25.44;47.18
69351;BME280;57106;51.446;-2.606;2023-06-22T12:29:41;101864.07;;;25.88;45.79
69351;BME280;57106;51.446;-2.606;2023-06-22T12:32:07;101868.41;;;26.11;46.87
69351;BME280;57106;51.446;-2.606;2023-06-22T12:34:32;101869.34;;;26.30;46.59
69351;BME280;57106;51.446;-2.606;2023-06-22T12:36:56;101868.38;;;26.56;45.77
69351;BME280;57106;51.446;-2.606;2023-06-22T12:41:47;101865.76;;;26.56;45.98
69351;BME280;57106;51.446;-2.606;2023-06-22T12:44:12;101861.58;;;26.52;46.30
69351;BME280;57106;51.446;-2.606;2023-06-22T12:46:37;101857.29;;;26.37;46.84
69351;BME280;57106;51.446;-2.606;2023-06-22T12:49:03;101859.26;;;26.34;46.69
69351;BME280;57106;51.446;-2.606;2023-06-22T12:51:28;101862.21;;;26.35;46.03
69351;BME280;57106;51.446;-2.606;2023-06-22T12:53:54;101858.13;;;26.45;45.96
69351;BME280;57106;51.446;-2.606;2023-06-22T12:56:18;101856.03;;;26.47;46.09
69351;BME280;57106;51.446;-2.606;2023-06-22T12:58:44;101858.48;;;26.38;45.86
69351;BME280;57106;51.446;-2.606;2023-06-22T13:01:09;101860.62;;;26.71;45.72
69351;BME280;57106;51.446;-2.606;2023-06-22T13:03:34;101857.29;;;26.69;44.62
69351;BME280;57106;51.446;-2.606;2023-06-22T13:05:59;101858.77;;;26.39;45.29
69351;BME280;57106;51.446;-2.606;2023-06-22T13:08:24;101862.25;;;26.49;45.62
69351;BME280;57106;51.446;-2.606;2023-06-22T13:10:50;101856.13;;;26.41;44.85
69351;BME280;57106;51.446;-2.606;2023-06-22T13:13:15;101857.49;;;26.35;46.15
69351;BME280;57106;51.446;-2.606;2023-06-22T13:15:41;101862.08;;;26.45;45.38
69351;BME280;57106;51.446;-2.606;2023-06-22T13:18:06;101863.86;;;26.51;45.12
69351;BME280;57106;51.446;-2.606;2023-06-22T13:20:30;101857.65;;;26.25;44.73
69351;BME280;57106;51.446;-2.606;2023-06-22T13:22:56;101857.45;;;26.46;44.15
69351;BME280;57106;51.446;-2.606;2023-06-22T13:25:21;101856.71;;;26.30;44.78
69351;BME280;57106;51.446;-2.606;2023-06-22T13:27:47;101856.82;;;26.49;45.03
69351;BME280;57106;51.446;-2.606;2023-06-22T13:30:12;101866.05;;;26.31;44.85
69351;BME280;57106;51.446;-2.606;2023-06-22T13:32:38;101866.81;;;26.19;44.47
69351;BME280;57106;51.446;-2.606;2023-06-22T13:35:02;101862.15;;;26.23;44.46
69351;BME280;57106;51.446;-2.606;2023-06-22T13:37:27;101864.35;;;26.15;44.89
69351;BME280;57106;51.446;-2.606;2023-06-22T13:39:52;101861.06;;;26.16;45.33
69351;BME280;57106;51.446;-2.606;2023-06-22T13:42:18;101862.32;;;26.40;44.81
69351;BME280;57106;51.446;-2.606;2023-06-22T13:44:43;101862.44;;;26.40;44.56
69351;BME280;57106;51.446;-2.606;2023-06-22T13:47:08;101867.07;;;26.30;44.12
69351;BME280;57106;51.446;-2.606;2023-06-22T13:49:33;101866.03;;;26.15;44.35
69351;BME280;57106;51.446;-2.606;2023-06-22T13:51:59;101862.23;;;26.33;44.71
69351;BME280;57106;51.446;-2.606;2023-06-22T13:54:24;101863.74;;;26.42;44.32
69351;BME280;57106;51.446;-2.606;2023-06-22T13:56:50;101863.59;;;26.63;43.48
69351;BME280;57106;51.446;-2.606;2023-06-22T13:59:14;101868.32;;;26.47;43.03
69351;BME280;57106;51.446;-2.606;2023-06-22T14:01:39;101866.90;;;26.17;43.39
69351;BME280;57106;51.446;-2.606;2023-06-22T14:04:05;101866.45;;;26.04;44.19
69351;BME280;57106;51.446;-2.606;2023-06-22T14:06:30;101862.28;;;26.18;43.71
69351;BME280;57106;51.446;-2.606;2023-06-22T14:08:56;101861.83;;;26.36;43.06
69351;BME280;57106;51.446;-2.606;2023-06-22T14:11:20;101865.52;;;26.64;42.95
69351;BME280;57106;51.446;-2.606;2023-06-22T14:13:46;101869.13;;;26.62;43.98
69351;BME280;57106;51.446;-2.606;2023-06-22T14:16:11;101870.54;;;26.69;43.15
69351;BME280;57106;51.446;-2.606;2023-06-22T14:18:36;101874.80;;;26.55;43.08
69351;BME280;57106;51.446;-2.606;2023-06-22T14:21:02;101875.29;;;26.56;43.55
69351;BME280;57106;51.446;-2.606;2023-06-22T14:28:17;101881.21;;;26.62;42.27
69351;BME280;57106;51.446;-2.606;2023-06-22T14:30:48;101877.43;;;26.77;42.21